Terminal Aerodrome Forecast
Issued by NWS Pueblo, CO

Home | Current Version | Previous Version | Text Only | Print | Product List | Glossary On
Versions: 1 2 3 4 5 6 7 8 9 10 11 12 13 14 15 16 17 18 19 20 21 22 23 24 25 26 27 28 29 30 31 32 33 34
000
FTUS45 KPUB 250521
TAFALS
TAF
KALS 250521Z 2506/2606 VRB06KT P6SM SCT140 BKN200
     FM251200 17006KT P6SM BKN140
     FM251700 22013KT P6SM BKN080
     FM251900 22015G28KT P6SM BKN050
     FM260100 22012KT P6SM BKN030=

USA.gov is the U.S. government's official web portal to all federal, state and local government web resources and services.